Pagrindinis puslapis
METAR-TAF:

METAR-TAF

Oro uostai :

Charlotte County Airport

Punta Gorda, Florida, Jungtinės Amerikos Valstijos

platuma: 26-55-04N, ilguma: 081-59-37W, Aukštis: 7 m

Dabartinis oras

Ataskaita buvo paskelbta 1 valandą ir 9 minutes, ne 23:53 UTC
Vėjas 6 kt iš Pietvakarių
Temperatūra 22°C
Drėgmė 69%
Slėgis 1016 hPa
Matomumas: 16.1 km
Išsisklaidę debesys ne aukštis 7000 ft

METAR: KPGD 242353Z 23006KT 10SM SCT070 22/16 A3001 RMK AO2 SLP161 T02170156 10272 20217 53007

Laikas: 20:02 (01:02 UTC)

Prognozė

Ataskaita buvo paskelbta 1 valandą ir 39 minutes, ne 23:23 UTC
Prognozė galioja nuo 25 metu 00 UTC su 25 metu 24 UTC
Vėjas 6 kt iš Pietų
Matomumas: 10 km
Mažai debesys ne aukštis 3000 ft
Išsisklaidę debesys ne aukštis 25000 ft
Nuo 25 metu 1500 UTC
Vėjas 14 kt iš Pietų/Pietvakarių su gūsio iki 22 kt
Matomumas: 10 km
Išsisklaidę debesys ne aukštis 4000 ft
Su prošvaistėmis ne aukštis 25000 ft

TAF: KPGD 242323Z 2500/2524 19006KT P6SM FEW030 SCT250 FM251500 20014G22KT P6SM SCT040 BKN250

Orai ataskaitas ir orų prognozės (METAR, TAF).

turimą stotys yra geltonos ir raudonos taškus žemėlapyje.

Perkelti pele per norėdami pamatyti stoties vardą.

Tada spustelėkite, norėdami matyti oro stebėjimo ir prognozės.

Norėdami pakeisti žemėlapį: spustelėkite ant žalios mygtukų su juodo kryžiaus žemyn,; žalią mygtuką su brūkšneliu, jei norite nutolinti; arba žalių rodyklių gretimoms žemėlapius.


METAR-TAF: